createdAt,value
2022-12-29T00:01:42.157Z,20.157
2022-12-29T00:16:44.239Z,19.951
2022-12-29T00:31:46.253Z,20.387
2022-12-29T00:46:48.373Z,21.604
2022-12-29T01:01:50.532Z,20.293
2022-12-29T01:16:52.523Z,23.176
2022-12-29T01:31:54.530Z,20.971
2022-12-29T01:46:56.519Z,21.567
2022-12-29T02:01:58.568Z,19.746
2022-12-29T02:17:00.583Z,19.387
2022-12-29T02:32:02.632Z,19.194
2022-12-29T02:47:04.718Z,19.132
2022-12-29T03:02:06.811Z,19.02
2022-12-29T03:17:09.741Z,18.854
2022-12-29T03:32:11.713Z,18.877
2022-12-29T03:47:13.566Z,19.388
2022-12-29T04:02:16.655Z,19.327
2022-12-29T04:17:20.456Z,19.119
2022-12-29T04:32:22.384Z,19.143
2022-12-29T04:47:24.422Z,19.027
2022-12-29T05:02:26.639Z,18.946
2022-12-29T05:17:28.834Z,19.207
2022-12-29T05:32:30.783Z,18.822
2022-12-29T05:47:32.677Z,18.211
2022-12-29T06:02:35.223Z,18.241
2022-12-29T06:17:37.275Z,17.67
2022-12-29T06:32:39.210Z,17.74
2022-12-29T06:47:41.189Z,17.89
2022-12-29T07:02:43.336Z,18.321
2022-12-29T07:17:45.326Z,18.308
2022-12-29T07:32:47.308Z,18.391
2022-12-29T07:47:49.234Z,18.516
2022-12-29T08:02:51.125Z,18.178
2022-12-29T08:17:53.023Z,18.082
2022-12-29T08:32:54.883Z,18.129
2022-12-29T08:47:56.827Z,18.447
2022-12-29T09:02:59.054Z,18.041
2022-12-29T09:18:01.095Z,19.759
2022-12-29T09:33:03.073Z,19.953
2022-12-29T09:48:09.623Z,17.501
2022-12-29T10:03:11.853Z,17.671
2022-12-29T10:18:13.889Z,17.9
2022-12-29T10:33:15.906Z,18.673
2022-12-29T10:48:17.830Z,18.846
2022-12-29T11:03:19.895Z,19.047
2022-12-29T11:18:21.966Z,19.05
2022-12-29T11:33:23.895Z,19.168
2022-12-29T11:48:25.881Z,18.922
2022-12-29T12:03:28.099Z,19.216
2022-12-29T12:18:30.178Z,19.996
2022-12-29T12:33:32.075Z,19.231
2022-12-29T12:48:34.071Z,19.561
2022-12-29T13:03:36.285Z,19.743
2022-12-29T13:18:38.324Z,20.423
2022-12-29T13:33:40.284Z,19.834
2022-12-29T13:48:42.282Z,20.048
2022-12-29T14:03:44.542Z,20.26
2022-12-29T14:18:46.602Z,20.011
2022-12-29T14:33:48.545Z,20.14
2022-12-29T14:48:50.473Z,20.265
2022-12-29T15:03:52.493Z,20.979
2022-12-29T15:18:54.412Z,20.16
2022-12-29T15:33:56.403Z,20.356
2022-12-29T15:48:58.342Z,20.635
2022-12-29T16:04:00.372Z,21.058
2022-12-29T16:19:02.381Z,20.479
2022-12-29T16:34:04.315Z,20.751
2022-12-29T16:49:06.224Z,20.796
2022-12-29T17:04:08.189Z,21.11
2022-12-29T17:19:10.107Z,20.976
2022-12-29T17:34:12.104Z,20.93
2022-12-29T17:49:14.054Z,24.481
2022-12-29T18:04:15.948Z,30.702
2022-12-29T18:19:17.907Z,31.448
2022-12-29T18:34:19.895Z,26.838
2022-12-29T18:49:22.240Z,26.345
2022-12-29T19:04:24.167Z,25.524
2022-12-29T19:19:26.313Z,25.421
2022-12-29T19:34:28.257Z,25.357
2022-12-29T19:49:30.237Z,25.048
2022-12-29T20:04:32.232Z,24.68
2022-12-29T20:19:34.207Z,23.496
2022-12-29T20:34:36.153Z,23.367
2022-12-29T20:49:38.132Z,23.73
2022-12-29T21:05:13.507Z,23.536
2022-12-29T21:20:24.931Z,22.573
2022-12-29T21:35:27.124Z,22.917
2022-12-29T21:50:29.082Z,22.915
2022-12-29T22:05:31.014Z,22.319
2022-12-29T22:20:33.015Z,22.399
2022-12-29T22:35:35.155Z,22.712
2022-12-29T22:50:37.098Z,22.976
2022-12-29T23:05:39.102Z,22.051
2022-12-29T23:20:41.007Z,22.26
2022-12-29T23:35:43.013Z,22.645
2022-12-29T23:50:45.091Z,22.644
